createdAt,value
2022-12-24T00:03:53.013Z,98120.45
2022-12-24T00:10:41.427Z,98113.77
2022-12-24T00:17:28.195Z,98110.70
2022-12-24T00:24:16.359Z,98100.60
2022-12-24T00:31:16.574Z,98103.66
2022-12-24T00:42:22.290Z,98108.88
2022-12-24T00:53:32.425Z,98116.36
2022-12-24T01:00:21.343Z,98111.99
2022-12-24T01:07:11.328Z,98105.54
2022-12-24T01:14:02.339Z,98101.25
2022-12-24T01:25:22.405Z,98080.83
2022-12-24T01:32:11.932Z,98083.85
2022-12-24T01:39:00.498Z,98071.50
2022-12-24T01:46:33.240Z,98068.81
2022-12-24T01:49:04.757Z,98063.73
2022-12-24T01:51:51.836Z,98062.93
2022-12-24T01:54:31.445Z,98060.15
2022-12-24T01:57:14.065Z,98054.55
2022-12-24T01:59:47.564Z,98055.13
2022-12-24T02:02:16.995Z,98059.99
2022-12-24T02:05:03.551Z,98073.50
2022-12-24T02:07:33.388Z,98071.33
2022-12-24T02:10:02.358Z,98076.22
2022-12-24T02:12:35.461Z,98079.36
2022-12-24T02:15:06.105Z,98078.23
2022-12-24T02:17:48.489Z,98077.24
2022-12-24T02:20:33.733Z,98076.77
2022-12-24T02:23:26.639Z,98077.08
2022-12-24T02:26:07.237Z,98080.82
2022-12-24T02:28:53.709Z,98083.42
2022-12-24T02:31:25.735Z,98084.37
2022-12-24T02:34:02.335Z,98084.54
2022-12-24T02:36:38.814Z,98088.36
2022-12-24T02:39:13.894Z,98085.39
2022-12-24T02:42:07.622Z,98086.13
2022-12-24T02:45:01.851Z,98082.16
2022-12-24T02:47:34.049Z,98076.33
2022-12-24T02:50:04.507Z,98077.73
2022-12-24T02:52:42.550Z,98081.02
2022-12-24T02:55:37.592Z,98085.25
2022-12-24T02:58:19.540Z,98084.59
2022-12-24T03:00:50.379Z,98080.75
2022-12-24T03:03:46.604Z,98080.10
2022-12-24T03:06:31.231Z,98076.67
2022-12-24T03:09:08.286Z,98078.50
2022-12-24T03:11:46.211Z,98084.40
2022-12-24T03:14:16.436Z,98076.00
2022-12-24T03:16:45.838Z,98076.83
2022-12-24T03:19:13.977Z,98078.49
2022-12-24T03:21:43.391Z,98084.11
2022-12-24T03:24:11.597Z,98090.02
2022-12-24T03:26:40.793Z,98091.96
2022-12-24T03:29:09.163Z,98091.80
2022-12-24T03:32:01.617Z,98094.17
2022-12-24T03:34:30.783Z,98091.66
2022-12-24T03:36:58.804Z,98090.14
2022-12-24T03:39:26.844Z,98093.73
2022-12-24T03:41:54.968Z,98096.46
2022-12-24T03:44:23.119Z,98097.05
2022-12-24T03:46:52.698Z,98094.62
2022-12-24T03:49:20.778Z,98090.82
2022-12-24T03:51:48.810Z,98090.21
2022-12-24T03:54:16.871Z,98084.05
2022-12-24T03:56:44.891Z,98088.38
2022-12-24T03:59:12.890Z,98087.20
2022-12-24T04:01:41.003Z,98086.83
2022-12-24T04:04:09.248Z,98088.62
2022-12-24T04:06:37.250Z,98090.89
2022-12-24T04:09:05.932Z,98093.40
2022-12-24T04:11:34.491Z,98088.83
2022-12-24T04:14:02.484Z,98080.25
2022-12-24T04:16:30.720Z,98087.41
2022-12-24T04:18:59.039Z,98082.80
2022-12-24T04:21:27.115Z,98081.61
2022-12-24T04:23:55.326Z,98081.06
2022-12-24T04:26:23.526Z,98077.04
2022-12-24T04:28:51.632Z,98079.02
2022-12-24T04:31:19.798Z,98075.05
2022-12-24T04:33:48.047Z,98083.69
2022-12-24T04:36:18.008Z,98089.74
2022-12-24T04:38:48.022Z,98087.70
2022-12-24T04:41:23.999Z,98094.98
2022-12-24T04:43:54.855Z,98097.48
2022-12-24T04:46:30.822Z,98098.27
2022-12-24T04:48:59.790Z,98094.23
2022-12-24T04:51:28.995Z,98089.34
2022-12-24T04:53:57.390Z,98090.39
2022-12-24T04:56:30.467Z,98091.11
2022-12-24T04:59:00.444Z,98087.78
2022-12-24T05:01:31.462Z,98085.83
2022-12-24T05:04:00.187Z,98079.90
2022-12-24T05:06:32.844Z,98073.52
2022-12-24T05:09:01.455Z,98076.11
2022-12-24T05:11:30.368Z,98075.61
2022-12-24T05:13:59.190Z,98075.65
2022-12-24T05:16:27.542Z,98070.48
2022-12-24T05:18:55.723Z,98074.17
2022-12-24T05:21:25.208Z,98076.54
2022-12-24T05:24:12.481Z,98075.38
2022-12-24T05:26:53.575Z,98073.64
2022-12-24T05:29:22.086Z,98071.60
2022-12-24T05:31:50.614Z,98070.85
2022-12-24T05:34:19.455Z,98069.20
2022-12-24T05:36:47.697Z,98065.34
2022-12-24T05:39:19.538Z,98063.55
2022-12-24T05:41:48.984Z,98061.58
2022-12-24T05:44:17.485Z,98060.17
2022-12-24T05:46:45.801Z,98065.31
2022-12-24T05:49:14.245Z,98069.21
2022-12-24T05:51:42.670Z,98067.54
2022-12-24T05:54:11.532Z,98071.17
2022-12-24T05:56:39.653Z,98071.73
2022-12-24T05:59:09.102Z,98075.91
2022-12-24T06:01:38.640Z,98079.52
2022-12-24T06:04:06.824Z,98084.58
2022-12-24T06:06:35.217Z,98086.81
2022-12-24T06:09:08.191Z,98079.98
2022-12-24T06:11:36.529Z,98080.92
2022-12-24T06:14:04.819Z,98078.80
2022-12-24T06:16:33.146Z,98082.73
2022-12-24T06:19:03.826Z,98084.79
2022-12-24T06:21:32.504Z,98086.80
2022-12-24T06:24:00.663Z,98094.27
2022-12-24T06:26:29.596Z,98099.75
2022-12-24T06:29:00.143Z,98098.63
2022-12-24T06:31:28.172Z,98090.10
2022-12-24T06:34:19.403Z,98082.20
2022-12-24T06:36:47.625Z,98083.29
2022-12-24T06:39:18.528Z,98085.49
2022-12-24T06:41:46.652Z,98078.44
2022-12-24T06:44:14.905Z,98087.09
2022-12-24T06:46:48.142Z,98092.48
2022-12-24T06:49:17.759Z,98093.58
2022-12-24T06:51:45.829Z,98098.30
2022-12-24T06:54:14.067Z,98099.10
2022-12-24T06:56:42.187Z,98100.31
2022-12-24T06:59:10.421Z,98104.86
2022-12-24T07:01:38.697Z,98103.89
2022-12-24T07:04:07.153Z,98101.83
2022-12-24T07:06:36.389Z,98097.82
2022-12-24T07:09:04.461Z,98100.52
2022-12-24T07:11:33.874Z,98105.03
2022-12-24T07:14:01.889Z,98105.09
2022-12-24T07:16:30.361Z,98105.85
2022-12-24T07:18:58.546Z,98105.97
2022-12-24T07:21:26.752Z,98106.55
2022-12-24T07:23:54.797Z,98102.86
2022-12-24T07:26:23.101Z,98097.17
2022-12-24T07:28:51.418Z,98092.64
2022-12-24T07:31:19.431Z,98091.36
2022-12-24T07:33:47.949Z,98090.70
2022-12-24T07:36:20.583Z,98089.41
2022-12-24T07:38:49.085Z,98092.42
2022-12-24T07:41:17.580Z,98093.06
2022-12-24T07:43:45.833Z,98088.45
2022-12-24T07:46:14.022Z,98089.61
2022-12-24T07:48:43.427Z,98093.13
2022-12-24T07:51:13.679Z,98090.61
2022-12-24T07:53:47.839Z,98080.96
2022-12-24T07:56:18.808Z,98080.63
2022-12-24T07:58:47.027Z,98083.81
2022-12-24T08:01:15.261Z,98083.48
2022-12-24T08:03:43.705Z,98080.06
2022-12-24T08:06:16.163Z,98079.84
2022-12-24T08:08:44.247Z,98078.08
2022-12-24T08:11:12.814Z,98083.73
2022-12-24T08:13:41.253Z,98090.95
2022-12-24T08:16:09.471Z,98087.80
2022-12-24T08:18:37.717Z,98081.27
2022-12-24T08:21:09.800Z,98081.26
2022-12-24T08:23:38.241Z,98080.16
2022-12-24T08:26:13.778Z,98080.00
2022-12-24T08:28:42.078Z,98078.60
2022-12-24T08:31:10.437Z,98075.41
2022-12-24T08:33:38.563Z,98079.59
2022-12-24T08:36:06.897Z,98079.75
2022-12-24T08:38:35.076Z,98083.86
2022-12-24T08:41:05.420Z,98080.88
2022-12-24T08:43:33.608Z,98081.45
2022-12-24T08:46:05.371Z,98084.96
2022-12-24T08:48:38.499Z,98079.45
2022-12-24T08:51:11.247Z,98078.24
2022-12-24T08:53:41.038Z,98081.38
2022-12-24T08:56:15.952Z,98084.69
2022-12-24T08:58:50.261Z,98093.09
2022-12-24T09:01:25.049Z,98092.61
2022-12-24T09:03:53.396Z,98101.35
2022-12-24T09:06:22.018Z,98102.30
2022-12-24T09:08:50.289Z,98100.46
2022-12-24T09:11:20.824Z,98100.45
2022-12-24T09:13:49.554Z,98101.36
2022-12-24T09:16:21.432Z,98102.40
2022-12-24T09:18:49.877Z,98097.73
2022-12-24T09:21:18.916Z,98100.90
2022-12-24T09:23:48.638Z,98099.47
2022-12-24T09:26:27.166Z,98102.86
2022-12-24T09:28:58.000Z,98104.23
2022-12-24T09:31:28.431Z,98110.17
2022-12-24T09:33:57.188Z,98111.54
2022-12-24T09:36:25.497Z,98103.18
2022-12-24T09:38:55.756Z,98101.98
2022-12-24T09:41:44.966Z,98098.96
2022-12-24T09:44:37.669Z,98096.52
2022-12-24T09:47:24.312Z,98096.93
2022-12-24T09:49:55.138Z,98095.58
2022-12-24T09:52:33.609Z,98085.23
2022-12-24T09:55:20.952Z,98071.27
2022-12-24T09:58:05.147Z,98066.34
2022-12-24T10:00:49.613Z,98061.88
2022-12-24T10:03:20.148Z,98060.09
2022-12-24T10:06:23.593Z,98055.57
2022-12-24T10:09:08.267Z,98046.48
2022-12-24T10:11:47.395Z,98042.15
2022-12-24T10:14:45.697Z,98035.38
2022-12-24T10:17:33.067Z,98040.79
2022-12-24T10:20:21.260Z,98042.98
2022-12-24T10:23:00.446Z,98048.90
2022-12-24T10:25:37.916Z,98046.30
2022-12-24T10:28:16.133Z,98040.10
2022-12-24T10:30:52.914Z,98042.25
2022-12-24T10:33:32.256Z,98045.40
2022-12-24T10:36:00.466Z,98044.11
2022-12-24T10:38:28.568Z,98043.78
2022-12-24T10:41:00.598Z,98040.63
2022-12-24T10:43:30.609Z,98041.57
2022-12-24T10:46:07.209Z,98039.04
2022-12-24T10:49:12.606Z,98037.57
2022-12-24T10:51:50.677Z,98030.83
2022-12-24T10:54:27.083Z,98029.67
2022-12-24T10:56:59.225Z,98032.81
2022-12-24T10:59:27.320Z,98033.05
2022-12-24T11:02:00.814Z,98028.46
2022-12-24T11:04:32.804Z,98033.10
2022-12-24T11:07:08.127Z,98038.84
2022-12-24T11:09:43.483Z,98044.75
2022-12-24T11:12:26.292Z,98038.77
2022-12-24T11:15:32.177Z,98036.66
2022-12-24T11:18:06.135Z,98031.43
2022-12-24T11:20:35.713Z,98027.02
2022-12-24T11:23:04.499Z,98018.58
2022-12-24T11:25:34.163Z,98016.19
2022-12-24T11:28:20.031Z,98009.42
2022-12-24T11:31:02.995Z,98007.63
2022-12-24T11:33:31.651Z,97999.50
2022-12-24T11:36:07.440Z,98004.33
2022-12-24T11:38:36.365Z,98002.89
2022-12-24T11:41:12.588Z,98003.45
2022-12-24T11:43:49.563Z,98001.41
2022-12-24T11:46:20.377Z,97992.42
2022-12-24T11:49:24.903Z,97989.97
2022-12-24T11:52:17.512Z,97984.11
2022-12-24T11:55:07.623Z,97981.79
2022-12-24T11:57:52.723Z,97979.98
2022-12-24T12:00:21.932Z,97983.98
2022-12-24T12:02:57.467Z,97981.07
2022-12-24T12:05:31.900Z,97973.95
2022-12-24T12:08:23.658Z,97981.95
2022-12-24T12:10:55.313Z,97986.70
2022-12-24T12:13:33.349Z,97983.31
2022-12-24T12:16:50.285Z,97982.84
2022-12-24T12:19:25.751Z,97991.13
2022-12-24T12:21:56.582Z,97988.46
2022-12-24T12:24:33.741Z,97988.13
2022-12-24T12:27:18.105Z,97991.61
2022-12-24T12:29:57.502Z,97994.54
2022-12-24T12:32:33.824Z,97995.98
2022-12-24T12:35:15.334Z,97994.13
2022-12-24T12:38:00.566Z,97995.70
2022-12-24T12:40:41.531Z,97998.88
2022-12-24T12:43:32.861Z,98002.75
2022-12-24T12:46:07.166Z,98000.48
2022-12-24T12:49:05.156Z,98002.85
2022-12-24T12:51:33.600Z,98003.76
2022-12-24T12:54:27.694Z,98008.27
2022-12-24T12:57:03.004Z,97997.34
2022-12-24T12:59:41.044Z,97985.77
2022-12-24T13:02:31.414Z,97980.73
2022-12-24T13:05:17.643Z,97979.47
2022-12-24T13:07:57.965Z,97980.45
2022-12-24T13:10:48.589Z,97980.73
2022-12-24T13:13:20.717Z,97987.20
2022-12-24T13:15:54.690Z,97981.84
2022-12-24T13:18:35.108Z,97973.27
2022-12-24T13:21:03.557Z,97971.92
2022-12-24T13:23:31.738Z,97972.98
2022-12-24T13:26:00.022Z,97969.08
2022-12-24T13:28:28.709Z,97973.43
2022-12-24T13:31:07.170Z,97974.10
2022-12-24T13:33:37.997Z,97981.98
2022-12-24T13:36:16.811Z,97979.52
2022-12-24T13:38:58.986Z,97977.79
2022-12-24T13:41:39.842Z,97980.84
2022-12-24T13:44:13.234Z,97982.42
2022-12-24T13:47:00.172Z,97980.20
2022-12-24T13:49:41.283Z,97982.51
2022-12-24T13:52:12.332Z,97980.55
2022-12-24T13:54:43.433Z,97977.64
2022-12-24T13:57:33.534Z,97979.89
2022-12-24T14:00:23.101Z,97981.77
2022-12-24T14:03:02.772Z,97991.98
2022-12-24T14:05:39.804Z,97989.32
2022-12-24T14:08:32.695Z,97986.38
2022-12-24T14:11:22.884Z,97987.09
2022-12-24T14:14:11.192Z,97988.83
2022-12-24T14:16:50.319Z,97990.19
2022-12-24T14:19:44.398Z,97989.67
2022-12-24T14:22:20.178Z,97998.48
2022-12-24T14:25:02.768Z,98000.52
2022-12-24T14:27:34.366Z,97999.80
2022-12-24T14:30:07.637Z,98004.91
2022-12-24T14:32:41.176Z,98004.46
2022-12-24T14:35:19.059Z,98003.94
2022-12-24T14:38:08.784Z,98009.63
2022-12-24T14:40:50.309Z,98016.55
2022-12-24T14:43:18.376Z,98024.94
2022-12-24T14:45:59.815Z,98031.44
2022-12-24T14:48:37.617Z,98031.28
2022-12-24T14:51:27.470Z,98030.36
2022-12-24T14:54:35.820Z,98030.51
